Hayward, WI (54843)

5:39 PM CST on February 11, 2016 (GMT -0600)
Sawyer County | | Change Station
CLOSE
Current Station
Airport
Location: Hayward,
Elevation: 1214 ft
Nearby Weather Stations

Elev 1214 ft 46.02 °N, 91.45 °W | Updated 46 minutes ago

Overcast
Overcast
13 °F
Feels Like 3 °F
N
7
Wind Variable Wind from WSW

Today
High -- | Low -- °F
--% Chance of Precip.
Yesterday
High -- | Low -- °F
Precip. -- in
Pressure 30.27 in
Visibility 10.0 miles
Clouds Mostly Cloudy 5000 ft
Overcast 6500 ft
Windchill 3 °F
Dew Point -7 °F
Humidity 41%
Rainfall 0.00 in
Snow Depth Not available.
7:15 AM 5:25 PM
Waxing Crescent, 15% visible
METAR KHYR 112253Z AUTO 24006KT 10SM BKN050 OVC065 M11/M22 A3016 RMK AO2 SLP249 T11061217
Pressure 30.27 in
Visibility 10.0 miles
Clouds Mostly Cloudy 5000 ft
Overcast 6500 ft
Windchill 3 °F
Dew Point -7 °F
Humidity 41%
Rainfall 0.00 in
Snow Depth Not available.
7:15 AM 5:25 PM
Waxing Crescent, 15% visible
METAR KHYR 112253Z AUTO 24006KT 10SM BKN050 OVC065 M11/M22 A3016 RMK AO2 SLP249 T11061217

10-Day Weather Forecast

Almanac

Astronomy

Feb. 11, 2016 Rise Set
Actual Time
Civil Twilight
Nautical Twilight
Astronomical Twilight
Moon
Length of Visible Light
Length of Day
Tomorrow will be .
, % of the Moon is Illuminated

Today's Extremes

State Highs State Lows

Community

WunderPhotos

Upload Photos

1,892,181 photos uploaded!

WunderBlog® & News

Nearby

Air Quality

  Air Quality AQ Index Pollutant
Not available.

Snow Depth

Station Depth Elevation

Earthquake Activity

City Distance Mag. Time & Date
Minimum magnitude displayed is 2.5.

Coastal Water Temperatures

Place Temperature

Stations

Nearby Weather Stations

Station Location Temp. Windchill Dew Point Humidity Wind Precip. Elev Updated Type
                   

Watches & Warnings

There are currently no watches in effect.